sensor_id;sensor_type;location;lat;lon;timestamp;P1;durP1;ratioP1;P2;durP2;ratioP2
14892;SDS011;7538;53.626;9.906;2023-07-02T00:01:28;4.38;;;2.92;;
14892;SDS011;7538;53.626;9.906;2023-07-02T00:03:55;4.53;;;3.05;;
14892;SDS011;7538;53.626;9.906;2023-07-02T00:06:21;3.42;;;3.13;;
14892;SDS011;7538;53.626;9.906;2023-07-02T00:08:48;7.93;;;3.42;;
14892;SDS011;7538;53.626;9.906;2023-07-02T00:11:16;8.30;;;3.80;;
14892;SDS011;7538;53.626;9.906;2023-07-02T00:13:43;5.25;;;3.60;;
14892;SDS011;7538;53.626;9.906;2023-07-02T00:16:10;4.20;;;3.70;;
14892;SDS011;7538;53.626;9.906;2023-07-02T00:18:37;7.20;;;3.70;;
14892;SDS011;7538;53.626;9.906;2023-07-02T00:21:05;4.80;;;3.42;;
14892;SDS011;7538;53.626;9.906;2023-07-02T00:23:32;6.15;;;3.80;;
14892;SDS011;7538;53.626;9.906;2023-07-02T00:25:58;5.68;;;3.42;;
14892;SDS011;7538;53.626;9.906;2023-07-02T00:28:27;7.40;;;3.53;;
14892;SDS011;7538;53.626;9.906;2023-07-02T00:30:54;5.38;;;3.30;;
14892;SDS011;7538;53.626;9.906;2023-07-02T00:33:20;4.85;;;3.35;;
14892;SDS011;7538;53.626;9.906;2023-07-02T00:35:49;7.13;;;3.42;;
14892;SDS011;7538;53.626;9.906;2023-07-02T00:38:16;7.03;;;3.50;;
14892;SDS011;7538;53.626;9.906;2023-07-02T00:40:43;7.43;;;3.85;;
14892;SDS011;7538;53.626;9.906;2023-07-02T00:43:09;5.10;;;3.35;;
14892;SDS011;7538;53.626;9.906;2023-07-02T00:45:39;3.85;;;3.45;;
14892;SDS011;7538;53.626;9.906;2023-07-02T00:48:06;7.40;;;4.00;;
14892;SDS011;7538;53.626;9.906;2023-07-02T00:50:33;6.43;;;3.60;;
14892;SDS011;7538;53.626;9.906;2023-07-02T00:53:00;6.60;;;3.97;;
14892;SDS011;7538;53.626;9.906;2023-07-02T00:55:27;6.18;;;4.10;;
14892;SDS011;7538;53.626;9.906;2023-07-02T00:57:54;9.77;;;4.10;;
14892;SDS011;7538;53.626;9.906;2023-07-02T01:00:21;11.02;;;4.20;;
14892;SDS011;7538;53.626;9.906;2023-07-02T01:02:54;3.67;;;2.60;;
14892;SDS011;7538;53.626;9.906;2023-07-02T01:05:24;4.82;;;3.50;;
14892;SDS011;7538;53.626;9.906;2023-07-02T01:07:51;7.22;;;3.67;;
14892;SDS011;7538;53.626;9.906;2023-07-02T01:10:18;7.70;;;3.47;;
14892;SDS011;7538;53.626;9.906;2023-07-02T01:12:45;7.00;;;3.80;;
14892;SDS011;7538;53.626;9.906;2023-07-02T01:15:13;8.43;;;3.35;;
14892;SDS011;7538;53.626;9.906;2023-07-02T01:17:40;5.25;;;3.28;;
14892;SDS011;7538;53.626;9.906;2023-07-02T01:20:09;4.65;;;3.33;;
14892;SDS011;7538;53.626;9.906;2023-07-02T01:22:37;4.18;;;3.33;;
14892;SDS011;7538;53.626;9.906;2023-07-02T01:25:05;9.25;;;3.83;;
14892;SDS011;7538;53.626;9.906;2023-07-02T01:27:34;7.40;;;4.10;;
14892;SDS011;7538;53.626;9.906;2023-07-02T01:30:02;6.57;;;3.80;;
14892;SDS011;7538;53.626;9.906;2023-07-02T01:32:29;9.05;;;4.15;;
14892;SDS011;7538;53.626;9.906;2023-07-02T01:34:56;5.38;;;3.97;;
14892;SDS011;7538;53.626;9.906;2023-07-02T01:37:25;7.88;;;4.07;;
14892;SDS011;7538;53.626;9.906;2023-07-02T01:39:52;7.45;;;4.05;;
14892;SDS011;7538;53.626;9.906;2023-07-02T01:42:19;7.88;;;4.53;;
14892;SDS011;7538;53.626;9.906;2023-07-02T01:44:46;9.77;;;4.00;;
14892;SDS011;7538;53.626;9.906;2023-07-02T01:47:16;7.22;;;4.22;;
14892;SDS011;7538;53.626;9.906;2023-07-02T01:49:44;8.55;;;4.70;;
14892;SDS011;7538;53.626;9.906;2023-07-02T01:52:11;5.28;;;3.80;;
14892;SDS011;7538;53.626;9.906;2023-07-02T01:54:39;7.68;;;4.05;;
14892;SDS011;7538;53.626;9.906;2023-07-02T01:57:06;7.03;;;4.25;;
14892;SDS011;7538;53.626;9.906;2023-07-02T01:59:33;7.72;;;4.88;;
14892;SDS011;7538;53.626;9.906;2023-07-02T02:02:00;5.03;;;3.85;;
14892;SDS011;7538;53.626;9.906;2023-07-02T02:04:28;5.93;;;4.40;;
14892;SDS011;7538;53.626;9.906;2023-07-02T02:06:54;7.90;;;4.65;;
14892;SDS011;7538;53.626;9.906;2023-07-02T02:09:21;6.75;;;4.63;;
14892;SDS011;7538;53.626;9.906;2023-07-02T02:11:50;6.45;;;4.55;;
14892;SDS011;7538;53.626;9.906;2023-07-02T02:14:17;5.65;;;4.35;;
14892;SDS011;7538;53.626;9.906;2023-07-02T02:16:44;5.15;;;3.78;;
14892;SDS011;7538;53.626;9.906;2023-07-02T02:19:11;8.23;;;4.30;;
14892;SDS011;7538;53.626;9.906;2023-07-02T02:21:39;7.97;;;4.70;;
14892;SDS011;7538;53.626;9.906;2023-07-02T02:24:06;5.72;;;4.15;;
14892;SDS011;7538;53.626;9.906;2023-07-02T02:26:33;6.35;;;4.43;;
14892;SDS011;7538;53.626;9.906;2023-07-02T02:29:02;13.60;;;4.85;;
14892;SDS011;7538;53.626;9.906;2023-07-02T02:31:29;5.25;;;4.55;;
14892;SDS011;7538;53.626;9.906;2023-07-02T02:33:56;6.55;;;4.60;;
14892;SDS011;7538;53.626;9.906;2023-07-02T02:36:22;6.18;;;4.25;;
14892;SDS011;7538;53.626;9.906;2023-07-02T02:38:49;6.30;;;4.13;;
14892;SDS011;7538;53.626;9.906;2023-07-02T02:41:16;6.75;;;4.55;;
14892;SDS011;7538;53.626;9.906;2023-07-02T02:43:43;6.75;;;4.90;;
14892;SDS011;7538;53.626;9.906;2023-07-02T02:46:11;13.57;;;5.15;;
14892;SDS011;7538;53.626;9.906;2023-07-02T02:48:38;6.00;;;5.10;;
14892;SDS011;7538;53.626;9.906;2023-07-02T02:51:05;5.10;;;4.63;;
14892;SDS011;7538;53.626;9.906;2023-07-02T02:53:32;11.00;;;5.50;;
14892;SDS011;7538;53.626;9.906;2023-07-02T02:55:59;4.90;;;4.00;;
14892;SDS011;7538;53.626;9.906;2023-07-02T02:58:25;6.32;;;4.68;;
14892;SDS011;7538;53.626;9.906;2023-07-02T03:00:53;8.02;;;4.88;;
14892;SDS011;7538;53.626;9.906;2023-07-02T03:03:21;6.90;;;4.78;;
14892;SDS011;7538;53.626;9.906;2023-07-02T03:05:49;5.75;;;4.47;;
14892;SDS011;7538;53.626;9.906;2023-07-02T03:08:16;8.98;;;5.22;;
14892;SDS011;7538;53.626;9.906;2023-07-02T03:10:43;10.48;;;5.50;;
14892;SDS011;7538;53.626;9.906;2023-07-02T03:13:10;8.02;;;4.93;;
14892;SDS011;7538;53.626;9.906;2023-07-02T03:15:37;6.13;;;4.45;;
14892;SDS011;7538;53.626;9.906;2023-07-02T03:18:04;7.97;;;4.85;;
14892;SDS011;7538;53.626;9.906;2023-07-02T03:20:32;9.32;;;5.03;;
14892;SDS011;7538;53.626;9.906;2023-07-02T03:22:59;7.43;;;4.60;;
14892;SDS011;7538;53.626;9.906;2023-07-02T03:25:26;6.57;;;4.65;;
14892;SDS011;7538;53.626;9.906;2023-07-02T03:27:53;11.45;;;5.22;;
14892;SDS011;7538;53.626;9.906;2023-07-02T03:30:19;8.82;;;4.93;;
14892;SDS011;7538;53.626;9.906;2023-07-02T03:32:47;8.95;;;4.78;;
14892;SDS011;7538;53.626;9.906;2023-07-02T03:35:14;7.55;;;4.55;;
14892;SDS011;7538;53.626;9.906;2023-07-02T03:37:42;13.73;;;5.50;;
14892;SDS011;7538;53.626;9.906;2023-07-02T03:40:09;11.50;;;5.68;;
14892;SDS011;7538;53.626;9.906;2023-07-02T03:42:36;9.98;;;5.90;;
14892;SDS011;7538;53.626;9.906;2023-07-02T03:45:03;13.52;;;5.32;;
14892;SDS011;7538;53.626;9.906;2023-07-02T03:47:30;9.52;;;5.57;;
14892;SDS011;7538;53.626;9.906;2023-07-02T03:49:57;6.78;;;5.43;;
14892;SDS011;7538;53.626;9.906;2023-07-02T03:52:23;11.57;;;5.32;;
14892;SDS011;7538;53.626;9.906;2023-07-02T03:54:52;13.15;;;5.00;;
14892;SDS011;7538;53.626;9.906;2023-07-02T03:57:19;10.15;;;5.43;;
14892;SDS011;7538;53.626;9.906;2023-07-02T03:59:46;13.65;;;5.82;;
14892;SDS011;7538;53.626;9.906;2023-07-02T04:02:13;11.10;;;5.28;;
14892;SDS011;7538;53.626;9.906;2023-07-02T04:04:40;11.88;;;6.05;;
14892;SDS011;7538;53.626;9.906;2023-07-02T04:07:07;10.88;;;5.68;;
14892;SDS011;7538;53.626;9.906;2023-07-02T04:09:33;15.35;;;6.00;;
14892;SDS011;7538;53.626;9.906;2023-07-02T04:12:02;8.73;;;5.50;;
14892;SDS011;7538;53.626;9.906;2023-07-02T04:14:30;10.57;;;5.28;;
14892;SDS011;7538;53.626;9.906;2023-07-02T04:16:57;12.85;;;5.32;;
14892;SDS011;7538;53.626;9.906;2023-07-02T04:19:23;11.65;;;5.53;;
14892;SDS011;7538;53.626;9.906;2023-07-02T04:21:50;10.57;;;5.75;;
14892;SDS011;7538;53.626;9.906;2023-07-02T04:24:17;10.57;;;5.65;;
14892;SDS011;7538;53.626;9.906;2023-07-02T04:26:44;9.85;;;5.75;;
14892;SDS011;7538;53.626;9.906;2023-07-02T04:29:12;11.00;;;5.80;;
14892;SDS011;7538;53.626;9.906;2023-07-02T04:31:39;10.23;;;5.63;;
14892;SDS011;7538;53.626;9.906;2023-07-02T04:34:06;8.75;;;5.82;;
14892;SDS011;7538;53.626;9.906;2023-07-02T04:36:33;9.05;;;5.40;;
14892;SDS011;7538;53.626;9.906;2023-07-02T04:38:59;10.88;;;5.30;;
14892;SDS011;7538;53.626;9.906;2023-07-02T04:41:26;11.80;;;6.47;;
14892;SDS011;7538;53.626;9.906;2023-07-02T04:43:54;12.00;;;6.13;;
14892;SDS011;7538;53.626;9.906;2023-07-02T04:46:23;12.10;;;6.03;;
14892;SDS011;7538;53.626;9.906;2023-07-02T04:48:50;13.60;;;6.07;;
14892;SDS011;7538;53.626;9.906;2023-07-02T04:51:16;11.63;;;5.85;;
14892;SDS011;7538;53.626;9.906;2023-07-02T04:53:43;11.18;;;6.22;;
14892;SDS011;7538;53.626;9.906;2023-07-02T04:56:10;12.55;;;6.25;;
14892;SDS011;7538;53.626;9.906;2023-07-02T04:58:37;14.98;;;6.00;;
14892;SDS011;7538;53.626;9.906;2023-07-02T05:01:04;11.68;;;6.22;;
14892;SDS011;7538;53.626;9.906;2023-07-02T05:03:32;13.18;;;5.22;;
14892;SDS011;7538;53.626;9.906;2023-07-02T05:05:59;13.95;;;6.50;;
14892;SDS011;7538;53.626;9.906;2023-07-02T05:08:26;12.50;;;6.43;;
14892;SDS011;7538;53.626;9.906;2023-07-02T05:10:53;12.00;;;6.70;;
14892;SDS011;7538;53.626;9.906;2023-07-02T05:13:20;11.50;;;5.80;;
14892;SDS011;7538;53.626;9.906;2023-07-02T05:15:47;13.48;;;6.32;;
14892;SDS011;7538;53.626;9.906;2023-07-02T05:18:14;10.55;;;6.10;;
14892;SDS011;7538;53.626;9.906;2023-07-02T05:20:42;14.95;;;6.63;;
14892;SDS011;7538;53.626;9.906;2023-07-02T05:23:09;14.55;;;6.25;;
14892;SDS011;7538;53.626;9.906;2023-07-02T05:25:36;13.13;;;6.43;;
14892;SDS011;7538;53.626;9.906;2023-07-02T05:28:02;15.05;;;6.60;;
14892;SDS011;7538;53.626;9.906;2023-07-02T05:30:29;13.38;;;6.28;;
14892;SDS011;7538;53.626;9.906;2023-07-02T05:32:56;14.57;;;6.13;;
14892;SDS011;7538;53.626;9.906;2023-07-02T05:35:23;12.93;;;5.95;;
14892;SDS011;7538;53.626;9.906;2023-07-02T05:37:51;13.25;;;6.15;;
14892;SDS011;7538;53.626;9.906;2023-07-02T05:40:18;12.10;;;5.95;;
14892;SDS011;7538;53.626;9.906;2023-07-02T05:42:45;12.77;;;5.93;;
14892;SDS011;7538;53.626;9.906;2023-07-02T05:45:12;13.52;;;7.00;;
14892;SDS011;7538;53.626;9.906;2023-07-02T05:47:39;15.93;;;6.78;;
14892;SDS011;7538;53.626;9.906;2023-07-02T05:50:06;12.98;;;6.55;;
14892;SDS011;7538;53.626;9.906;2023-07-02T05:52:34;16.40;;;7.68;;
14892;SDS011;7538;53.626;9.906;2023-07-02T05:55:03;14.63;;;7.30;;
14892;SDS011;7538;53.626;9.906;2023-07-02T05:57:30;15.48;;;7.57;;
14892;SDS011;7538;53.626;9.906;2023-07-02T05:59:57;14.73;;;7.10;;
14892;SDS011;7538;53.626;9.906;2023-07-02T06:02:24;14.43;;;7.88;;
14892;SDS011;7538;53.626;9.906;2023-07-02T06:04:51;14.98;;;6.97;;
14892;SDS011;7538;53.626;9.906;2023-07-02T06:07:17;15.70;;;7.53;;
14892;SDS011;7538;53.626;9.906;2023-07-02T06:09:44;14.82;;;7.60;;
14892;SDS011;7538;53.626;9.906;2023-07-02T06:12:12;13.20;;;7.65;;
14892;SDS011;7538;53.626;9.906;2023-07-02T06:14:39;15.70;;;7.38;;
14892;SDS011;7538;53.626;9.906;2023-07-02T06:17:06;15.30;;;7.45;;
14892;SDS011;7538;53.626;9.906;2023-07-02T06:19:35;14.43;;;7.90;;
14892;SDS011;7538;53.626;9.906;2023-07-02T06:22:03;14.70;;;7.63;;
14892;SDS011;7538;53.626;9.906;2023-07-02T06:24:30;16.15;;;8.43;;
14892;SDS011;7538;53.626;9.906;2023-07-02T06:26:57;13.57;;;8.30;;
14892;SDS011;7538;53.626;9.906;2023-07-02T06:29:25;13.45;;;8.13;;
14892;SDS011;7538;53.626;9.906;2023-07-02T06:31:54;13.00;;;8.15;;
14892;SDS011;7538;53.626;9.906;2023-07-02T06:34:21;12.52;;;7.35;;
14892;SDS011;7538;53.626;9.906;2023-07-02T06:36:47;16.30;;;8.13;;
14892;SDS011;7538;53.626;9.906;2023-07-02T06:39:14;15.98;;;8.52;;
14892;SDS011;7538;53.626;9.906;2023-07-02T06:41:41;11.77;;;7.38;;
14892;SDS011;7538;53.626;9.906;2023-07-02T06:44:08;15.20;;;8.13;;
14892;SDS011;7538;53.626;9.906;2023-07-02T06:46:36;14.23;;;7.47;;
14892;SDS011;7538;53.626;9.906;2023-07-02T06:49:03;12.73;;;8.07;;
14892;SDS011;7538;53.626;9.906;2023-07-02T06:51:30;12.73;;;7.30;;
14892;SDS011;7538;53.626;9.906;2023-07-02T06:53:58;14.20;;;8.30;;
14892;SDS011;7538;53.626;9.906;2023-07-02T06:56:25;13.23;;;7.47;;
14892;SDS011;7538;53.626;9.906;2023-07-02T06:58:52;17.65;;;8.68;;
14892;SDS011;7538;53.626;9.906;2023-07-02T07:01:19;14.63;;;8.52;;
14892;SDS011;7538;53.626;9.906;2023-07-02T07:03:47;19.58;;;8.65;;
14892;SDS011;7538;53.626;9.906;2023-07-02T07:06:14;14.77;;;7.85;;
14892;SDS011;7538;53.626;9.906;2023-07-02T07:08:41;18.00;;;8.93;;
14892;SDS011;7538;53.626;9.906;2023-07-02T07:11:08;19.08;;;8.57;;
14892;SDS011;7538;53.626;9.906;2023-07-02T07:13:35;21.55;;;8.95;;
14892;SDS011;7538;53.626;9.906;2023-07-02T07:16:02;15.90;;;7.93;;
14892;SDS011;7538;53.626;9.906;2023-07-02T07:18:29;15.15;;;8.15;;
14892;SDS011;7538;53.626;9.906;2023-07-02T07:20:57;17.98;;;8.63;;
14892;SDS011;7538;53.626;9.906;2023-07-02T07:23:24;19.42;;;9.13;;
14892;SDS011;7538;53.626;9.906;2023-07-02T07:25:50;18.45;;;8.57;;
14892;SDS011;7538;53.626;9.906;2023-07-02T07:28:17;15.65;;;8.63;;
14892;SDS011;7538;53.626;9.906;2023-07-02T07:30:44;15.27;;;7.63;;
14892;SDS011;7538;53.626;9.906;2023-07-02T07:33:11;15.15;;;8.10;;
14892;SDS011;7538;53.626;9.906;2023-07-02T07:35:38;17.55;;;8.43;;
14892;SDS011;7538;53.626;9.906;2023-07-02T07:38:06;15.77;;;7.78;;
14892;SDS011;7538;53.626;9.906;2023-07-02T07:40:33;19.30;;;7.88;;
14892;SDS011;7538;53.626;9.906;2023-07-02T07:43:00;14.38;;;8.50;;
14892;SDS011;7538;53.626;9.906;2023-07-02T07:45:27;15.68;;;7.30;;
14892;SDS011;7538;53.626;9.906;2023-07-02T07:47:53;14.48;;;8.20;;
14892;SDS011;7538;53.626;9.906;2023-07-02T07:50:20;14.02;;;7.93;;
14892;SDS011;7538;53.626;9.906;2023-07-02T07:52:47;13.90;;;7.63;;
14892;SDS011;7538;53.626;9.906;2023-07-02T07:55:16;16.75;;;7.35;;
14892;SDS011;7538;53.626;9.906;2023-07-02T07:57:42;12.20;;;7.65;;
14892;SDS011;7538;53.626;9.906;2023-07-02T08:00:10;12.60;;;7.93;;
14892;SDS011;7538;53.626;9.906;2023-07-02T08:02:37;11.75;;;6.85;;
14892;SDS011;7538;53.626;9.906;2023-07-02T08:05:05;14.02;;;7.93;;
14892;SDS011;7538;53.626;9.906;2023-07-02T08:07:32;12.98;;;7.47;;
14892;SDS011;7538;53.626;9.906;2023-07-02T08:09:59;12.07;;;7.40;;
14892;SDS011;7538;53.626;9.906;2023-07-02T08:12:28;12.18;;;7.68;;
14892;SDS011;7538;53.626;9.906;2023-07-02T08:14:55;9.80;;;7.50;;
14892;SDS011;7538;53.626;9.906;2023-07-02T08:17:22;10.73;;;7.15;;
14892;SDS011;7538;53.626;9.906;2023-07-02T08:19:49;10.95;;;7.50;;
14892;SDS011;7538;53.626;9.906;2023-07-02T08:22:16;16.70;;;7.45;;
14892;SDS011;7538;53.626;9.906;2023-07-02T08:24:43;12.07;;;7.35;;
14892;SDS011;7538;53.626;9.906;2023-07-02T08:27:10;15.57;;;7.20;;
14892;SDS011;7538;53.626;9.906;2023-07-02T08:29:40;14.55;;;7.15;;
14892;SDS011;7538;53.626;9.906;2023-07-02T08:32:07;12.68;;;7.35;;
14892;SDS011;7538;53.626;9.906;2023-07-02T08:34:34;12.88;;;7.10;;
14892;SDS011;7538;53.626;9.906;2023-07-02T08:37:01;9.32;;;5.68;;
14892;SDS011;7538;53.626;9.906;2023-07-02T08:39:28;13.10;;;6.78;;
14892;SDS011;7538;53.626;9.906;2023-07-02T08:41:55;10.95;;;6.75;;
14892;SDS011;7538;53.626;9.906;2023-07-02T08:44:22;13.50;;;7.43;;
14892;SDS011;7538;53.626;9.906;2023-07-02T08:46:50;10.65;;;6.60;;
14892;SDS011;7538;53.626;9.906;2023-07-02T08:49:20;12.75;;;6.10;;
14892;SDS011;7538;53.626;9.906;2023-07-02T08:51:47;10.93;;;6.30;;
14892;SDS011;7538;53.626;9.906;2023-07-02T08:54:14;12.32;;;6.55;;
14892;SDS011;7538;53.626;9.906;2023-07-02T08:56:44;13.60;;;7.10;;
14892;SDS011;7538;53.626;9.906;2023-07-02T08:59:11;11.60;;;5.70;;
14892;SDS011;7538;53.626;9.906;2023-07-02T09:01:44;11.85;;;5.75;;
14892;SDS011;7538;53.626;9.906;2023-07-02T09:04:17;11.73;;;5.38;;
14892;SDS011;7538;53.626;9.906;2023-07-02T09:06:44;9.75;;;5.82;;
14892;SDS011;7538;53.626;9.906;2023-07-02T09:09:12;8.77;;;5.35;;
14892;SDS011;7538;53.626;9.906;2023-07-02T09:11:48;10.60;;;5.65;;
14892;SDS011;7538;53.626;9.906;2023-07-02T09:14:25;8.65;;;5.32;;
14892;SDS011;7538;53.626;9.906;2023-07-02T09:17:02;8.98;;;5.57;;
14892;SDS011;7538;53.626;9.906;2023-07-02T09:19:32;9.45;;;4.93;;
14892;SDS011;7538;53.626;9.906;2023-07-02T09:21:59;14.68;;;5.60;;
14892;SDS011;7538;53.626;9.906;2023-07-02T09:24:27;11.77;;;5.18;;
14892;SDS011;7538;53.626;9.906;2023-07-02T09:26:56;9.27;;;4.75;;
14892;SDS011;7538;53.626;9.906;2023-07-02T09:29:24;11.43;;;5.00;;
14892;SDS011;7538;53.626;9.906;2023-07-02T09:31:53;9.95;;;5.43;;
14892;SDS011;7538;53.626;9.906;2023-07-02T09:34:26;10.23;;;5.45;;
14892;SDS011;7538;53.626;9.906;2023-07-02T09:36:56;14.13;;;5.47;;
14892;SDS011;7538;53.626;9.906;2023-07-02T09:39:27;11.48;;;5.20;;
14892;SDS011;7538;53.626;9.906;2023-07-02T09:41:55;13.65;;;5.70;;
14892;SDS011;7538;53.626;9.906;2023-07-02T09:44:25;13.13;;;5.85;;
14892;SDS011;7538;53.626;9.906;2023-07-02T09:46:56;11.07;;;5.43;;
14892;SDS011;7538;53.626;9.906;2023-07-02T09:49:27;13.88;;;5.60;;
14892;SDS011;7538;53.626;9.906;2023-07-02T09:52:00;10.32;;;5.65;;
14892;SDS011;7538;53.626;9.906;2023-07-02T09:54:28;6.15;;;4.20;;
14892;SDS011;7538;53.626;9.906;2023-07-02T09:56:55;9.85;;;4.90;;
14892;SDS011;7538;53.626;9.906;2023-07-02T09:59:23;12.52;;;5.65;;
14892;SDS011;7538;53.626;9.906;2023-07-02T10:01:50;12.40;;;5.13;;
14892;SDS011;7538;53.626;9.906;2023-07-02T10:04:17;10.43;;;5.50;;
14892;SDS011;7538;53.626;9.906;2023-07-02T10:06:46;9.27;;;5.32;;
14892;SDS011;7538;53.626;9.906;2023-07-02T10:09:16;11.98;;;5.00;;
14892;SDS011;7538;53.626;9.906;2023-07-02T10:11:43;7.85;;;4.22;;
14892;SDS011;7538;53.626;9.906;2023-07-02T10:14:10;7.57;;;4.20;;
14892;SDS011;7538;53.626;9.906;2023-07-02T10:16:50;9.45;;;4.68;;
14892;SDS011;7538;53.626;9.906;2023-07-02T10:19:18;7.03;;;4.47;;
14892;SDS011;7538;53.626;9.906;2023-07-02T10:21:45;8.80;;;4.93;;
14892;SDS011;7538;53.626;9.906;2023-07-02T10:24:16;10.50;;;4.55;;
14892;SDS011;7538;53.626;9.906;2023-07-02T10:26:53;10.70;;;4.82;;
14892;SDS011;7538;53.626;9.906;2023-07-02T10:29:22;9.85;;;5.43;;
14892;SDS011;7538;53.626;9.906;2023-07-02T10:31:49;9.75;;;4.70;;
14892;SDS011;7538;53.626;9.906;2023-07-02T10:34:16;8.93;;;4.80;;
14892;SDS011;7538;53.626;9.906;2023-07-02T10:36:53;8.38;;;4.60;;
14892;SDS011;7538;53.626;9.906;2023-07-02T10:39:22;8.00;;;4.68;;
14892;SDS011;7538;53.626;9.906;2023-07-02T10:41:49;7.82;;;4.50;;
14892;SDS011;7538;53.626;9.906;2023-07-02T10:44:16;9.98;;;4.40;;
14892;SDS011;7538;53.626;9.906;2023-07-02T10:46:43;11.52;;;4.85;;
14892;SDS011;7538;53.626;9.906;2023-07-02T10:49:10;7.80;;;4.05;;
14892;SDS011;7538;53.626;9.906;2023-07-02T10:51:37;6.07;;;4.32;;
14892;SDS011;7538;53.626;9.906;2023-07-02T10:54:04;6.07;;;3.80;;
14892;SDS011;7538;53.626;9.906;2023-07-02T10:56:32;11.07;;;3.40;;
14892;SDS011;7538;53.626;9.906;2023-07-02T10:59:00;9.05;;;4.20;;
14892;SDS011;7538;53.626;9.906;2023-07-02T11:01:28;7.72;;;4.07;;
14892;SDS011;7538;53.626;9.906;2023-07-02T11:03:56;7.15;;;3.88;;
14892;SDS011;7538;53.626;9.906;2023-07-02T11:06:24;11.13;;;4.32;;
14892;SDS011;7538;53.626;9.906;2023-07-02T11:08:52;7.15;;;3.90;;
14892;SDS011;7538;53.626;9.906;2023-07-02T11:11:20;8.15;;;3.90;;
14892;SDS011;7538;53.626;9.906;2023-07-02T11:13:49;9.35;;;3.70;;
14892;SDS011;7538;53.626;9.906;2023-07-02T11:16:18;8.65;;;4.18;;
14892;SDS011;7538;53.626;9.906;2023-07-02T11:18:51;9.85;;;4.22;;
14892;SDS011;7538;53.626;9.906;2023-07-02T11:21:18;8.10;;;4.00;;
14892;SDS011;7538;53.626;9.906;2023-07-02T11:23:45;7.45;;;3.78;;
14892;SDS011;7538;53.626;9.906;2023-07-02T11:26:12;8.80;;;3.95;;
14892;SDS011;7538;53.626;9.906;2023-07-02T11:28:47;8.38;;;4.03;;
14892;SDS011;7538;53.626;9.906;2023-07-02T11:31:26;9.70;;;3.78;;
14892;SDS011;7538;53.626;9.906;2023-07-02T11:33:53;6.43;;;3.35;;
14892;SDS011;7538;53.626;9.906;2023-07-02T11:36:20;5.78;;;3.60;;
14892;SDS011;7538;53.626;9.906;2023-07-02T11:38:48;8.38;;;3.35;;
14892;SDS011;7538;53.626;9.906;2023-07-02T11:41:15;8.55;;;3.38;;
14892;SDS011;7538;53.626;9.906;2023-07-02T11:43:43;10.02;;;3.60;;
14892;SDS011;7538;53.626;9.906;2023-07-02T11:46:11;8.55;;;3.72;;
14892;SDS011;7538;53.626;9.906;2023-07-02T11:48:38;9.80;;;3.88;;
14892;SDS011;7538;53.626;9.906;2023-07-02T11:51:05;8.80;;;3.30;;
14892;SDS011;7538;53.626;9.906;2023-07-02T11:53:32;5.82;;;3.28;;
14892;SDS011;7538;53.626;9.906;2023-07-02T11:55:58;7.60;;;3.65;;
14892;SDS011;7538;53.626;9.906;2023-07-02T11:58:25;7.80;;;3.90;;
14892;SDS011;7538;53.626;9.906;2023-07-02T12:00:52;10.50;;;3.42;;
14892;SDS011;7538;53.626;9.906;2023-07-02T12:03:20;9.40;;;3.92;;
14892;SDS011;7538;53.626;9.906;2023-07-02T12:05:47;8.32;;;3.92;;
14892;SDS011;7538;53.626;9.906;2023-07-02T12:08:14;9.02;;;3.33;;
14892;SDS011;7538;53.626;9.906;2023-07-02T12:10:41;8.68;;;3.40;;
14892;SDS011;7538;53.626;9.906;2023-07-02T12:13:08;5.88;;;3.05;;
14892;SDS011;7538;53.626;9.906;2023-07-02T12:15:35;7.47;;;3.58;;
14892;SDS011;7538;53.626;9.906;2023-07-02T12:18:01;10.05;;;3.80;;
14892;SDS011;7538;53.626;9.906;2023-07-02T12:20:30;5.63;;;3.08;;
14892;SDS011;7538;53.626;9.906;2023-07-02T12:22:57;8.30;;;3.35;;
14892;SDS011;7538;53.626;9.906;2023-07-02T12:25:23;6.63;;;3.03;;
14892;SDS011;7538;53.626;9.906;2023-07-02T12:27:50;6.22;;;3.05;;
14892;SDS011;7538;53.626;9.906;2023-07-02T12:30:18;8.63;;;3.53;;
14892;SDS011;7538;53.626;9.906;2023-07-02T12:32:45;5.93;;;3.55;;
14892;SDS011;7538;53.626;9.906;2023-07-02T12:35:12;11.57;;;3.92;;
14892;SDS011;7538;53.626;9.906;2023-07-02T12:37:44;8.52;;;6.07;;
14892;SDS011;7538;53.626;9.906;2023-07-02T12:40:12;9.77;;;3.53;;
14892;SDS011;7538;53.626;9.906;2023-07-02T12:42:40;7.75;;;3.22;;
14892;SDS011;7538;53.626;9.906;2023-07-02T12:45:08;5.25;;;3.05;;
14892;SDS011;7538;53.626;9.906;2023-07-02T12:47:36;7.88;;;2.97;;
14892;SDS011;7538;53.626;9.906;2023-07-02T12:50:03;4.60;;;2.45;;
14892;SDS011;7538;53.626;9.906;2023-07-02T12:52:30;6.18;;;3.00;;
14892;SDS011;7538;53.626;9.906;2023-07-02T12:54:59;7.60;;;3.20;;
14892;SDS011;7538;53.626;9.906;2023-07-02T12:57:26;6.20;;;2.63;;
14892;SDS011;7538;53.626;9.906;2023-07-02T12:59:53;7.97;;;2.97;;
14892;SDS011;7538;53.626;9.906;2023-07-02T13:02:20;6.38;;;3.20;;
14892;SDS011;7538;53.626;9.906;2023-07-02T13:04:47;6.22;;;2.67;;
14892;SDS011;7538;53.626;9.906;2023-07-02T13:07:14;7.53;;;2.55;;
14892;SDS011;7538;53.626;9.906;2023-07-02T13:09:41;9.30;;;3.05;;
14892;SDS011;7538;53.626;9.906;2023-07-02T13:12:09;7.47;;;3.28;;
14892;SDS011;7538;53.626;9.906;2023-07-02T13:14:37;6.55;;;2.60;;
14892;SDS011;7538;53.626;9.906;2023-07-02T13:17:04;9.35;;;2.67;;
14892;SDS011;7538;53.626;9.906;2023-07-02T13:19:31;6.47;;;2.30;;
14892;SDS011;7538;53.626;9.906;2023-07-02T13:21:59;5.68;;;2.55;;
14892;SDS011;7538;53.626;9.906;2023-07-02T13:24:27;6.03;;;2.17;;
14892;SDS011;7538;53.626;9.906;2023-07-02T13:26:58;5.22;;;2.50;;
14892;SDS011;7538;53.626;9.906;2023-07-02T13:29:26;4.35;;;2.38;;
14892;SDS011;7538;53.626;9.906;2023-07-02T13:31:53;4.40;;;2.65;;
14892;SDS011;7538;53.626;9.906;2023-07-02T13:34:20;7.15;;;2.40;;
14892;SDS011;7538;53.626;9.906;2023-07-02T13:36:47;5.22;;;2.40;;
14892;SDS011;7538;53.626;9.906;2023-07-02T13:39:14;5.30;;;2.42;;
14892;SDS011;7538;53.626;9.906;2023-07-02T13:41:41;7.07;;;2.30;;
14892;SDS011;7538;53.626;9.906;2023-07-02T13:44:07;4.47;;;2.33;;
14892;SDS011;7538;53.626;9.906;2023-07-02T13:46:36;6.80;;;2.20;;
14892;SDS011;7538;53.626;9.906;2023-07-02T13:49:03;6.03;;;2.83;;
14892;SDS011;7538;53.626;9.906;2023-07-02T13:51:29;5.55;;;2.70;;
14892;SDS011;7538;53.626;9.906;2023-07-02T13:53:56;7.45;;;2.63;;
14892;SDS011;7538;53.626;9.906;2023-07-02T13:56:23;9.18;;;2.47;;
14892;SDS011;7538;53.626;9.906;2023-07-02T13:59:01;7.47;;;2.83;;
14892;SDS011;7538;53.626;9.906;2023-07-02T14:01:29;5.20;;;2.30;;
14892;SDS011;7538;53.626;9.906;2023-07-02T14:03:56;5.63;;;2.60;;
14892;SDS011;7538;53.626;9.906;2023-07-02T14:06:23;8.25;;;2.65;;
14892;SDS011;7538;53.626;9.906;2023-07-02T14:08:50;6.75;;;2.85;;
14892;SDS011;7538;53.626;9.906;2023-07-02T14:11:17;5.03;;;2.70;;
14892;SDS011;7538;53.626;9.906;2023-07-02T14:13:44;7.85;;;2.88;;
14892;SDS011;7538;53.626;9.906;2023-07-02T14:16:12;6.30;;;2.30;;
14892;SDS011;7538;53.626;9.906;2023-07-02T14:18:39;7.45;;;2.28;;
14892;SDS011;7538;53.626;9.906;2023-07-02T14:21:06;8.18;;;2.53;;
14892;SDS011;7538;53.626;9.906;2023-07-02T14:23:33;5.53;;;2.60;;
14892;SDS011;7538;53.626;9.906;2023-07-02T14:26:00;7.68;;;2.75;;
14892;SDS011;7538;53.626;9.906;2023-07-02T14:28:27;6.05;;;2.78;;
14892;SDS011;7538;53.626;9.906;2023-07-02T14:30:57;4.55;;;2.45;;
14892;SDS011;7538;53.626;9.906;2023-07-02T14:33:27;4.47;;;2.22;;
14892;SDS011;7538;53.626;9.906;2023-07-02T14:35:54;9.25;;;3.08;;
14892;SDS011;7538;53.626;9.906;2023-07-02T14:38:21;6.60;;;2.58;;
14892;SDS011;7538;53.626;9.906;2023-07-02T14:40:48;8.20;;;2.90;;
14892;SDS011;7538;53.626;9.906;2023-07-02T14:43:16;7.90;;;2.63;;
14892;SDS011;7538;53.626;9.906;2023-07-02T14:45:45;5.82;;;2.83;;
14892;SDS011;7538;53.626;9.906;2023-07-02T14:48:15;5.93;;;2.88;;
14892;SDS011;7538;53.626;9.906;2023-07-02T14:50:45;5.82;;;2.60;;
14892;SDS011;7538;53.626;9.906;2023-07-02T14:53:14;4.63;;;2.75;;
14892;SDS011;7538;53.626;9.906;2023-07-02T14:55:41;11.25;;;3.20;;
14892;SDS011;7538;53.626;9.906;2023-07-02T14:58:10;5.60;;;2.95;;